createdAt,value
2022-11-21T00:02:09.401Z,17.50
2022-11-21T00:07:13.547Z,20.00
2022-11-21T00:12:17.290Z,16.75
2022-11-21T00:17:20.093Z,17.50
2022-11-21T00:22:24.208Z,18.00
2022-11-21T00:27:26.985Z,17.75
2022-11-21T00:32:29.749Z,16.00
2022-11-21T00:37:34.450Z,16.25
2022-11-21T00:42:37.192Z,17.50
2022-11-21T00:47:40.306Z,18.00
2022-11-21T00:52:44.600Z,17.00
2022-11-21T00:57:47.582Z,13.25
2022-11-21T01:02:50.562Z,15.00
2022-11-21T01:07:54.944Z,15.75
2022-11-21T01:12:57.788Z,16.00
2022-11-21T01:18:00.518Z,15.50
2022-11-21T01:23:04.728Z,14.75
2022-11-21T01:28:07.572Z,18.00
2022-11-21T01:33:10.370Z,16.50
2022-11-21T01:38:14.682Z,17.75
2022-11-21T01:43:17.810Z,15.25
2022-11-21T01:48:23.711Z,16.50
2022-11-21T01:53:28.127Z,15.75
2022-11-21T01:58:34.994Z,15.25
2022-11-21T02:03:39.613Z,14.25
2022-11-21T02:08:46.190Z,16.50
2022-11-21T02:13:48.929Z,15.00
2022-11-21T02:18:51.853Z,18.25
2022-11-21T02:24:02.909Z,14.00
2022-11-21T02:29:07.172Z,13.75
2022-11-21T02:34:09.915Z,15.75
2022-11-21T02:39:16.856Z,15.50
2022-11-21T02:44:27.693Z,16.25
2022-11-21T02:49:41.958Z,16.75
2022-11-21T02:54:44.794Z,14.25
2022-11-21T02:59:48.894Z,12.25
2022-11-21T03:04:51.725Z,15.75
2022-11-21T03:09:54.500Z,16.25
2022-11-21T03:14:58.604Z,13.50
2022-11-21T03:20:01.663Z,15.75
2022-11-21T03:25:04.961Z,16.25
2022-11-21T03:30:11.262Z,13.75
2022-11-21T03:35:14.083Z,15.75
2022-11-21T03:40:16.931Z,15.00
2022-11-21T03:45:20.995Z,13.00
2022-11-21T03:50:23.776Z,14.50
2022-11-21T03:55:26.715Z,14.50
2022-11-21T04:00:30.827Z,12.00
2022-11-21T04:05:33.598Z,13.00
2022-11-21T04:10:36.367Z,15.00
2022-11-21T04:15:42.124Z,13.25
2022-11-21T04:20:44.911Z,12.50
2022-11-21T04:25:47.761Z,12.50
2022-11-21T04:30:54.896Z,11.50
2022-11-21T04:35:57.965Z,12.25
2022-11-21T04:41:00.734Z,14.00
2022-11-21T04:46:04.906Z,13.00
2022-11-21T04:51:07.652Z,12.50
2022-11-21T04:56:10.451Z,16.50
2022-11-21T05:01:14.570Z,12.00
2022-11-21T05:06:17.321Z,11.75
2022-11-21T05:11:37.786Z,9.75
2022-11-21T05:16:41.854Z,11.50
2022-11-21T05:21:44.640Z,11.25
2022-11-21T05:26:47.401Z,13.00
2022-11-21T05:31:51.511Z,11.50
2022-11-21T05:36:57.162Z,12.00
2022-11-21T05:42:03.252Z,12.25
2022-11-21T05:47:07.594Z,10.25
2022-11-21T05:52:10.341Z,11.00
2022-11-21T05:57:13.138Z,10.50
2022-11-21T06:02:34.584Z,12.25
2022-11-21T06:07:37.505Z,11.00
2022-11-21T06:12:40.335Z,10.75
2022-11-21T06:17:44.492Z,11.00
2022-11-21T06:22:47.317Z,11.50
2022-11-21T06:27:50.041Z,12.50
2022-11-21T06:32:54.196Z,11.00
2022-11-21T06:37:57.503Z,10.25
2022-11-21T06:43:00.249Z,9.75
2022-11-21T06:48:04.731Z,11.25
2022-11-21T06:53:07.665Z,9.00
2022-11-21T06:58:11.247Z,9.00
2022-11-21T07:03:15.366Z,11.00
2022-11-21T07:08:18.120Z,11.00
2022-11-21T07:13:23.556Z,10.00
2022-11-21T07:18:28.163Z,9.00
2022-11-21T07:23:31.651Z,9.00
2022-11-21T07:28:35.444Z,9.00
2022-11-21T07:33:39.655Z,10.50
2022-11-21T07:38:42.598Z,10.00
2022-11-21T07:43:45.453Z,9.00
2022-11-21T07:48:49.608Z,9.75
2022-11-21T07:53:52.485Z,11.00
2022-11-21T07:58:55.230Z,11.25
2022-11-21T08:03:59.472Z,9.00
2022-11-21T08:09:02.299Z,8.50
2022-11-21T08:14:05.349Z,9.00
2022-11-21T08:19:09.444Z,36.00
2022-11-21T08:24:14.607Z,40.40
2022-11-21T08:29:17.646Z,36.40
2022-11-21T08:34:21.848Z,31.25
2022-11-21T08:39:26.068Z,29.75
2022-11-21T08:44:29.923Z,24.75
2022-11-21T08:49:35.195Z,23.25
2022-11-21T08:54:37.997Z,22.75
2022-11-21T08:59:40.881Z,22.75
2022-11-21T09:04:45.267Z,20.25
2022-11-21T09:09:48.121Z,16.75
2022-11-21T09:15:08.430Z,19.00
2022-11-21T09:20:12.942Z,16.50
2022-11-21T09:25:15.953Z,20.50
2022-11-21T09:30:18.805Z,16.75
2022-11-21T09:35:23.009Z,14.50
2022-11-21T09:40:26.315Z,16.25
2022-11-21T09:45:34.547Z,16.00
2022-11-21T09:50:42.615Z,14.50
2022-11-21T09:55:47.908Z,15.75
2022-11-21T10:00:52.516Z,16.25
2022-11-21T10:06:02.334Z,12.00
2022-11-21T10:11:20.299Z,14.00
2022-11-21T10:16:35.756Z,14.75
2022-11-21T10:22:01.359Z,12.25
2022-11-21T10:27:08.860Z,15.50
2022-11-21T10:32:18.940Z,13.00
2022-11-21T10:37:31.997Z,13.00
2022-11-21T10:42:39.128Z,13.00
2022-11-21T10:47:41.869Z,13.50
2022-11-21T10:52:50.267Z,13.75
2022-11-21T10:57:56.338Z,14.00
2022-11-21T11:03:04.735Z,13.00
2022-11-21T11:08:11.221Z,13.00
2022-11-21T11:13:49.956Z,14.25
2022-11-21T11:18:59.529Z,13.25
2022-11-21T11:24:22.877Z,13.25
2022-11-21T11:29:27.784Z,13.00
2022-11-21T11:34:40.156Z,10.75
2022-11-21T11:39:56.843Z,12.75
2022-11-21T11:45:33.159Z,13.50
2022-11-21T11:50:41.784Z,12.00
2022-11-21T11:55:52.985Z,12.25
2022-11-21T12:01:01.511Z,16.25
2022-11-21T12:06:09.480Z,11.00
2022-11-21T12:11:43.379Z,14.50
2022-11-21T12:16:47.042Z,12.75
2022-11-21T12:21:49.970Z,12.50
2022-11-21T12:27:04.016Z,12.25
2022-11-21T12:32:28.525Z,12.75
2022-11-21T12:37:47.203Z,14.50
2022-11-21T12:43:05.600Z,14.25
2022-11-21T12:48:37.256Z,11.75
2022-11-21T12:54:06.391Z,12.50
2022-11-21T12:59:16.111Z,12.50
2022-11-21T13:04:23.839Z,13.00
2022-11-21T13:09:29.385Z,11.25
2022-11-21T13:14:45.538Z,12.25
2022-11-21T13:19:55.531Z,13.50
2022-11-21T13:25:00.104Z,14.25
2022-11-21T13:30:23.139Z,11.50
2022-11-21T13:36:05.513Z,14.00
2022-11-21T13:41:40.633Z,11.00
2022-11-21T13:47:01.246Z,10.25
2022-11-21T13:52:12.445Z,13.00
2022-11-21T13:57:29.632Z,8.50
2022-11-21T14:02:59.336Z,11.25
2022-11-21T14:08:15.278Z,10.25
2022-11-21T14:13:29.459Z,9.75
2022-11-21T14:18:34.254Z,11.00
2022-11-21T14:23:45.251Z,12.00
2022-11-21T14:28:48.842Z,10.00
2022-11-21T14:33:57.954Z,11.25
2022-11-21T14:39:36.520Z,11.00
2022-11-21T14:44:29.808Z,8.50
2022-11-21T14:49:34.646Z,8.75
2022-11-21T14:55:00.296Z,8.00
2022-11-21T15:00:09.855Z,8.50
2022-11-21T15:05:34.189Z,9.75
2022-11-21T15:10:39.913Z,9.00
2022-11-21T15:15:45.180Z,7.50
2022-11-21T15:20:52.114Z,8.25
2022-11-21T15:26:00.442Z,7.50
2022-11-21T15:31:18.069Z,8.50
2022-11-21T15:36:22.389Z,9.25
2022-11-21T15:41:28.769Z,11.25
2022-11-21T15:46:33.281Z,8.25
2022-11-21T15:52:05.471Z,8.00
2022-11-21T15:57:02.389Z,11.00
2022-11-21T16:02:05.280Z,6.50
2022-11-21T16:07:09.691Z,8.00
2022-11-21T16:12:12.597Z,7.50
2022-11-21T16:17:15.610Z,9.00
2022-11-21T16:22:19.767Z,6.00
2022-11-21T16:27:22.757Z,6.75
2022-11-21T16:32:26.559Z,5.00
2022-11-21T16:37:32.349Z,7.50
2022-11-21T16:42:35.006Z,7.75
2022-11-21T16:47:38.172Z,8.25
2022-11-21T16:52:42.384Z,8.00
2022-11-21T16:57:45.163Z,9.75
2022-11-21T17:02:47.893Z,12.25
2022-11-21T17:07:52.290Z,9.00
2022-11-21T17:12:55.298Z,14.25
2022-11-21T17:18:01.444Z,17.75
2022-11-21T17:23:05.600Z,17.00
2022-11-21T17:28:08.705Z,17.00
2022-11-21T17:33:11.729Z,22.00
2022-11-21T17:38:16.319Z,17.75
2022-11-21T17:43:19.060Z,20.00
2022-11-21T17:48:22.167Z,17.00
2022-11-21T17:53:26.367Z,16.00
2022-11-21T17:58:29.972Z,16.75
2022-11-21T18:03:33.344Z,17.25
2022-11-21T18:08:38.918Z,16.75
2022-11-21T18:13:42.253Z,15.75
2022-11-21T18:18:45.505Z,13.75
2022-11-21T18:23:50.383Z,14.75
2022-11-21T18:29:13.519Z,16.25
2022-11-21T18:34:18.880Z,15.25
2022-11-21T18:39:25.153Z,18.00
2022-11-21T18:44:28.259Z,14.75
2022-11-21T18:49:31.280Z,17.00
2022-11-21T18:54:35.677Z,16.50
2022-11-21T18:59:38.560Z,15.00
2022-11-21T19:04:41.315Z,16.75
2022-11-21T19:09:46.451Z,15.25
2022-11-21T19:14:52.015Z,15.25
2022-11-21T19:19:54.945Z,15.00
2022-11-21T19:24:59.144Z,14.75
2022-11-21T19:30:01.985Z,19.75
2022-11-21T19:35:05.153Z,14.75
2022-11-21T19:40:11.381Z,13.00
2022-11-21T19:45:14.220Z,14.75
2022-11-21T19:50:17.341Z,15.25
2022-11-21T19:55:21.687Z,15.50
2022-11-21T20:00:25.472Z,15.00
2022-11-21T20:05:28.257Z,17.75
2022-11-21T20:10:34.033Z,14.75
2022-11-21T20:15:39.364Z,11.50
2022-11-21T20:20:42.214Z,12.50
2022-11-21T20:25:50.932Z,15.00
2022-11-21T20:30:53.720Z,14.50
2022-11-21T20:36:03.803Z,12.25
2022-11-21T20:41:08.299Z,12.50
2022-11-21T20:46:16.981Z,14.75
2022-11-21T20:56:47.518Z,17.00
2022-11-21T21:01:50.411Z,17.00
2022-11-21T21:06:53.179Z,16.25
2022-11-21T21:11:57.374Z,21.50
2022-11-21T21:17:00.126Z,22.00
2022-11-21T21:22:04.821Z,26.00
2022-11-21T21:27:08.997Z,21.75
2022-11-21T21:32:11.926Z,22.50
2022-11-21T21:37:14.797Z,20.50
2022-11-21T21:42:18.876Z,18.75
2022-11-21T21:47:21.821Z,18.75
2022-11-21T21:52:24.677Z,18.00
2022-11-21T21:57:28.933Z,20.00
2022-11-21T22:02:31.675Z,16.75
2022-11-21T22:07:34.532Z,19.25
2022-11-21T22:12:43.654Z,17.00
2022-11-21T22:17:47.062Z,15.00
2022-11-21T22:22:49.869Z,16.00
2022-11-21T22:27:53.991Z,18.75
2022-11-21T22:32:56.768Z,14.25
2022-11-21T22:37:59.569Z,16.50
2022-11-21T22:43:03.726Z,12.75
2022-11-21T22:48:07.302Z,13.25
2022-11-21T22:53:10.110Z,18.25
2022-11-21T22:58:14.230Z,13.25
2022-11-21T23:03:16.981Z,14.75
2022-11-21T23:08:19.942Z,13.75
2022-11-21T23:13:24.036Z,16.75
